Time;durP1;ratioP1;P1;durP2;ratioP2;P2;SDS_P1;SDS_P2;PMS_P1;PMS_P2;Temp;Humidity;BMP_temperature;BMP_pressure;BME280_temperature;BME280_humidity;BME280_pressure;Samples;Min_cycle;Max_cycle;Signal;HPM_P1;HPM_P2
2023/11/25 00:01:37;;;;;;;3.10;1.30;;;;;;;3.47;59.36;98424.69;106695;1256;60310;-54
2023/11/25 00:04:05;;;;;;;5.20;1.40;;;;;;;3.41;59.57;98421.52;106156;1257;63822;-53
2023/11/25 00:06:32;;;;;;;5.70;2.10;;;;;;;3.35;59.71;98416.59;105786;1259;60402;-53
2023/11/25 00:09:00;;;;;;;6.70;1.60;;;;;;;3.31;59.82;98414.34;102591;1253;3593935;-53
2023/11/25 00:12:37;;;;;;;3.80;1.50;;;;;;;3.05;60.66;98410.35;102995;1292;600399;-55
2023/11/25 00:15:05;;;;;;;5.60;1.20;;;;;;;3.32;59.94;98410.27;104749;1267;59260;-56
2023/11/25 00:17:34;;;;;;;3.00;0.80;;;;;;;3.40;59.72;98408.05;105103;1270;59357;-57
2023/11/25 00:20:04;;;;;;;5.00;0.80;;;;;;;3.47;59.58;98410.07;105074;1266;62233;-55
2023/11/25 00:22:32;;;;;;;4.00;0.90;;;;;;;3.52;59.58;98409.15;104945;1270;60120;-55
2023/11/25 00:25:00;;;;;;;3.80;0.90;;;;;;;3.52;59.66;98409.50;101764;1267;3482241;-56
2023/11/25 00:27:29;;;;;;;6.00;1.40;;;;;;;3.49;59.70;98418.58;105476;1264;59348;-55
2023/11/25 00:29:58;;;;;;;6.50;1.90;;;;;;;3.34;60.08;98423.06;104760;1264;59418;-54
2023/11/25 00:32:25;;;;;;;6.30;2.30;;;;;;;3.24;60.29;98428.76;105350;1264;62133;-55
2023/11/25 00:34:53;;;;;;;5.90;1.50;;;;;;;3.20;60.37;98424.64;104384;1269;60144;-56
2023/11/25 00:37:21;;;;;;;5.30;1.70;;;;;;;3.15;60.48;98430.84;104655;1263;62449;-56
2023/11/25 00:39:49;;;;;;;5.20;1.30;;;;;;;3.11;60.49;98433.25;104788;1260;59797;-56
2023/11/25 00:42:21;;;;;;;5.60;1.40;;;;;;;3.08;60.54;98436.50;105097;1261;59584;-55
2023/11/25 00:44:49;;;;;;;7.40;1.50;;;;;;;3.04;60.63;98435.55;105481;1257;62837;-56
2023/11/25 00:47:16;;;;;;;5.20;2.00;;;;;;;3.00;60.77;98436.23;105424;1257;63530;-54
2023/11/25 00:49:48;;;;;;;6.30;1.60;;;;;;;2.94;60.89;98435.30;105203;1261;62485;-54
2023/11/25 00:52:15;;;;;;;5.40;1.70;;;;;;;2.90;60.98;98442.75;105118;1260;59649;-55
2023/11/25 00:54:43;;;;;;;2.60;0.90;;;;;;;2.85;61.05;98447.30;105050;1257;60176;-55
2023/11/25 00:57:11;;;;;;;7.80;1.20;;;;;;;2.87;61.13;98450.08;105857;1254;64190;-56
2023/11/25 00:59:38;;;;;;;6.20;1.50;;;;;;;2.92;61.03;98454.35;105078;1257;61367;-56
2023/11/25 01:02:06;;;;;;;2.90;0.70;;;;;;;2.96;61.06;98457.48;104855;1257;63724;-55
2023/11/25 01:04:34;;;;;;;4.50;2.10;;;;;;;3.00;61.01;98456.17;106280;1254;60280;-56
2023/11/25 01:07:01;;;;;;;9.30;1.20;;;;;;;3.02;61.10;98451.65;106715;1256;59637;-56
2023/11/25 01:09:30;;;;;;;5.10;1.40;;;;;;;3.01;61.20;98449.98;106444;1257;64126;-57
2023/11/25 01:11:58;;;;;;;2.80;0.70;;;;;;;3.00;61.25;98450.13;107051;1256;61349;-55
2023/11/25 01:14:28;;;;;;;5.20;1.60;;;;;;;2.97;61.43;98443.95;104874;1261;63779;-57
2023/11/25 01:16:56;;;;;;;1.90;0.60;;;;;;;2.92;61.35;98438.77;105032;1257;60641;-58
2023/11/25 01:19:24;;;;;;;3.60;0.80;;;;;;;2.87;61.46;98436.10;106882;1256;59734;-56
2023/11/25 01:21:52;;;;;;;4.70;1.20;;;;;;;2.81;61.49;98433.23;106728;1259;64680;-58
2023/11/25 01:24:20;;;;;;;8.70;2.00;;;;;;;2.76;61.58;98426.49;105089;1257;64144;-57
2023/11/25 01:26:48;;;;;;;4.40;1.90;;;;;;;2.72;61.75;98422.87;105013;1257;62635;-57
2023/11/25 01:29:17;;;;;;;5.50;1.70;;;;;;;2.67;61.82;98423.61;105245;1258;59784;-57
2023/11/25 01:31:44;;;;;;;3.10;1.00;;;;;;;2.65;61.82;98423.95;105651;1257;59634;-55
2023/11/25 01:34:12;;;;;;;3.60;1.00;;;;;;;2.68;61.82;98423.20;105285;1257;62850;-56
2023/11/25 01:36:41;;;;;;;7.10;1.00;;;;;;;2.73;61.74;98427.30;105136;1257;60118;-56
2023/11/25 01:39:08;;;;;;;2.10;0.70;;;;;;;2.77;61.80;98434.07;106053;1256;64131;-57
2023/11/25 01:41:39;;;;;;;4.50;1.30;;;;;;;2.81;61.83;98434.09;105087;1257;59756;-57
2023/11/25 01:44:07;;;;;;;2.80;0.80;;;;;;;2.87;61.82;98441.45;105036;1256;59640;-56
2023/11/25 01:46:37;;;;;;;3.90;1.60;;;;;;;2.88;61.89;98449.28;105786;1253;62896;-56
2023/11/25 01:49:09;;;;;;;6.80;1.90;;;;;;;2.86;61.92;98452.44;105724;1253;60662;-56
2023/11/25 01:51:44;;;;;;;3.20;1.10;;;;;;;2.83;62.04;98457.05;105576;1254;63736;-55
2023/11/25 01:54:16;;;;;;;4.10;1.20;;;;;;;2.75;62.19;98460.50;105622;1257;59739;-56
2023/11/25 01:56:46;;;;;;;6.50;2.00;;;;;;;2.67;62.34;98460.00;105610;1252;59720;-56
2023/11/25 01:59:14;;;;;;;5.00;1.20;;;;;;;2.58;62.47;98456.36;105274;1258;64224;-58
2023/11/25 02:01:43;;;;;;;4.90;1.10;;;;;;;2.50;62.63;98461.65;105521;1254;61350;-52
2023/11/25 02:04:13;;;;;;;3.90;1.30;;;;;;;2.42;62.82;98465.52;105331;1253;62539;-51
2023/11/25 02:06:41;;;;;;;4.10;1.40;;;;;;;2.35;62.98;98471.07;105699;1258;59749;-54
2023/11/25 02:11:31;;;;;;;5.40;1.20;;;;;;;2.11;63.60;98480.82;101935;1292;601312;-54
2023/11/25 02:13:58;;;;;;;2.90;1.10;;;;;;;2.29;63.17;98487.66;105014;1266;60628;-52
2023/11/25 02:16:28;;;;;;;4.10;1.30;;;;;;;2.35;63.12;98501.85;105517;1266;59258;-55
2023/11/25 02:18:56;;;;;;;5.50;1.80;;;;;;;2.39;63.12;98514.89;104378;1266;63278;-52
2023/11/25 02:21:25;;;;;;;3.70;1.60;;;;;;;2.43;63.18;98517.04;104385;1268;60347;-54
2023/11/25 02:23:53;;;;;;;4.10;1.50;;;;;;;2.42;63.28;98515.69;101887;1271;3374254;-54
2023/11/25 02:26:22;;;;;;;5.30;2.20;;;;;;;2.38;63.44;98518.60;104563;1265;59474;-54
2023/11/25 02:28:50;;;;;;;6.70;2.20;;;;;;;2.34;63.48;98524.96;104533;1269;59346;-52
2023/11/25 02:31:18;;;;;;;4.00;1.70;;;;;;;2.30;63.45;98532.90;104768;1264;62053;-53
2023/11/25 02:33:49;;;;;;;6.00;2.60;;;;;;;2.28;63.50;98539.45;105695;1265;60111;-55
2023/11/25 02:36:19;;;;;;;6.40;1.30;;;;;;;2.26;63.39;98542.35;104596;1266;63691;-53
2023/11/25 02:38:47;;;;;;;4.60;1.50;;;;;;;2.25;63.30;98546.09;104664;1271;59756;-54
2023/11/25 02:41:16;;;;;;;4.00;1.10;;;;;;;2.24;63.35;98546.48;104767;1264;59854;-52
2023/11/25 02:43:46;;;;;;;4.30;1.30;;;;;;;2.30;63.16;98547.58;106292;1266;62903;-53
2023/11/25 02:46:16;;;;;;;6.20;1.70;;;;;;;2.41;62.86;98552.82;105444;1265;61585;-53
2023/11/25 02:48:44;;;;;;;4.80;1.40;;;;;;;2.51;62.69;98559.70;104774;1266;62553;-52
2023/11/25 02:51:12;;;;;;;5.60;1.30;;;;;;;2.61;62.47;98567.91;104883;1266;59705;-52
2023/11/25 02:53:45;;;;;;;4.10;1.30;;;;;;;2.71;62.27;98566.67;105077;1269;59654;-52
2023/11/25 02:56:13;;;;;;;3.90;1.30;;;;;;;2.76;62.16;98565.94;104788;1266;64160;-52
2023/11/25 02:58:42;;;;;;;5.00;1.90;;;;;;;2.79;62.15;98565.69;104646;1269;61404;-54
2023/11/25 03:01:11;;;;;;;4.10;1.10;;;;;;;2.82;62.04;98558.39;104964;1266;63695;-53
2023/11/25 03:03:45;;;;;;;5.40;1.80;;;;;;;2.83;61.85;98560.76;104907;1268;59750;-52
2023/11/25 03:06:14;;;;;;;3.10;1.10;;;;;;;2.82;61.74;98563.02;105717;1268;59005;-52
2023/11/25 03:08:43;;;;;;;3.10;0.80;;;;;;;2.81;61.68;98570.91;105580;1262;62830;-53
2023/11/25 03:11:15;;;;;;;5.20;1.10;;;;;;;2.78;61.63;98584.30;104545;1266;62037;-51
2023/11/25 03:13:44;;;;;;;10.00;4.80;;;;;;;2.73;61.50;98592.15;104977;1266;63728;-55
2023/11/25 03:16:13;;;;;;;4.60;1.20;;;;;;;2.68;61.45;98596.13;106202;1269;59673;-51
2023/11/25 03:18:40;;;;;;;9.30;2.30;;;;;;;2.63;61.41;98602.58;104721;1266;59710;-51
2023/11/25 03:21:17;;;;;;;5.80;1.30;;;;;;;2.57;61.57;98605.09;104895;1267;64662;-52
2023/11/25 03:23:46;;;;;;;8.90;2.00;;;;;;;2.49;61.53;98599.09;105383;1266;61326;-51
2023/11/25 03:26:15;;;;;;;5.30;1.10;;;;;;;2.46;61.71;98588.14;104693;1264;63483;-51
2023/11/25 03:28:44;;;;;;;7.80;1.60;;;;;;;2.49;61.65;98582.85;104786;1265;59742;-53
2023/11/25 03:31:14;;;;;;;3.70;1.10;;;;;;;2.54;61.72;98584.71;104718;1268;59655;-53
2023/11/25 03:33:43;;;;;;;3.60;1.20;;;;;;;2.59;61.75;98588.02;104400;1275;64162;-52
2023/11/25 03:36:11;;;;;;;10.90;1.70;;;;;;;2.63;61.89;98589.58;105504;1263;61884;-52
2023/11/25 03:38:38;;;;;;;5.10;1.00;;;;;;;2.66;61.91;98583.98;105928;1267;62634;-51
2023/11/25 03:41:08;;;;;;;5.30;1.60;;;;;;;2.67;62.04;98584.61;105590;1266;59583;-52
2023/11/25 03:43:36;;;;;;;4.60;1.30;;;;;;;2.65;62.08;98586.72;105630;1269;59810;-50
2023/11/25 03:46:04;;;;;;;6.70;1.20;;;;;;;2.57;62.29;98591.64;104302;1264;62864;-53
2023/11/25 03:48:34;;;;;;;7.10;1.90;;;;;;;2.48;62.36;98592.30;104309;1271;60329;-50
2023/11/25 03:51:05;;;;;;;5.70;2.60;;;;;;;2.39;62.50;98593.42;104936;1266;62553;-51
2023/11/25 03:53:33;;;;;;;6.50;1.20;;;;;;;2.33;62.65;98600.98;105603;1266;59745;-53
2023/11/25 03:56:00;;;;;;;6.30;2.20;;;;;;;2.28;62.86;98606.89;104354;1269;59878;-52
2023/11/25 03:58:28;;;;;;;3.60;1.90;;;;;;;2.22;62.93;98615.52;104578;1269;64235;-54
2023/11/25 04:00:56;;;;;;;9.70;2.70;;;;;;;2.18;63.00;98623.57;104593;1268;60143;-53
2023/11/25 04:03:25;;;;;;;3.80;1.00;;;;;;;2.15;63.22;98628.33;104187;1267;72863;-54
2023/11/25 04:05:52;;;;;;;4.20;1.60;;;;;;;2.15;63.23;98636.09;107788;1267;59769;-54
2023/11/25 04:08:21;;;;;;;8.70;1.70;;;;;;;2.20;63.07;98644.00;104680;1266;59527;-53
2023/11/25 04:10:50;;;;;;;8.30;3.10;;;;;;;2.26;62.94;98650.86;104239;1264;64130;-53
2023/11/25 04:13:20;;;;;;;3.40;1.20;;;;;;;2.31;62.96;98654.45;106688;1268;60110;-54
2023/11/25 04:15:48;;;;;;;5.10;2.00;;;;;;;2.35;63.08;98656.05;104393;1268;64434;-53
2023/11/25 04:18:16;;;;;;;4.20;1.20;;;;;;;2.34;63.05;98660.45;106146;1266;59583;-54
2023/11/25 04:20:44;;;;;;;6.90;1.40;;;;;;;2.33;63.06;98664.33;104802;1270;59746;-54
2023/11/25 04:23:14;;;;;;;5.00;1.20;;;;;;;2.33;63.00;98668.98;105739;1269;64232;-52
2023/11/25 04:25:44;;;;;;;4.20;1.40;;;;;;;2.31;62.99;98667.94;104847;1270;60104;-52
2023/11/25 04:28:12;;;;;;;5.60;1.30;;;;;;;2.27;62.98;98670.83;105097;1268;63667;-54
2023/11/25 04:30:42;;;;;;;5.20;1.80;;;;;;;2.21;63.00;98670.59;108208;1268;58086;-55
2023/11/25 04:33:11;;;;;;;4.20;1.40;;;;;;;2.16;62.91;98665.59;104950;1269;59640;-54
2023/11/25 04:35:39;;;;;;;7.30;1.90;;;;;;;2.12;62.89;98652.59;106340;1265;64553;-52
2023/11/25 04:38:07;;;;;;;3.90;1.30;;;;;;;2.07;62.88;98646.20;105910;1268;61362;-54
2023/11/25 04:40:36;;;;;;;9.40;2.30;;;;;;;2.03;62.94;98638.68;105218;1258;62506;-53
2023/11/25 04:43:04;;;;;;;10.90;3.20;;;;;;;2.01;63.05;98635.02;105836;1254;59617;-54
2023/11/25 04:45:31;;;;;;;19.10;3.20;;;;;;;1.96;62.94;98636.73;105000;1255;59646;-53
2023/11/25 04:47:59;;;;;;;6.00;1.90;;;;;;;1.92;62.91;98641.52;105066;1266;64135;-54
2023/11/25 04:50:29;;;;;;;3.80;1.40;;;;;;;1.88;62.91;98640.23;104889;1253;61626;-53
2023/11/25 04:52:59;;;;;;;4.40;1.60;;;;;;;1.89;62.76;98639.67;105105;1257;64402;-51
2023/11/25 04:55:27;;;;;;;4.30;1.40;;;;;;;1.95;62.57;98643.23;109228;1256;57593;-53
2023/11/25 04:57:56;;;;;;;5.10;1.90;;;;;;;2.00;62.61;98643.70;108604;1258;57452;-53
2023/11/25 05:00:24;;;;;;;5.90;2.30;;;;;;;2.08;62.74;98643.52;108264;1251;66695;-53
2023/11/25 05:02:52;;;;;;;5.00;1.50;;;;;;;2.17;62.78;98649.73;106011;1258;61399;-52
2023/11/25 05:05:20;;;;;;;2.90;1.00;;;;;;;2.27;62.92;98653.35;105347;1258;63767;-56
2023/11/25 05:07:47;;;;;;;3.80;1.30;;;;;;;2.36;62.78;98656.35;105692;1258;59709;-52
2023/11/25 05:10:16;;;;;;;6.70;1.70;;;;;;;2.38;62.67;98662.92;105943;1253;59533;-56
2023/11/25 05:12:44;;;;;;;6.60;1.40;;;;;;;2.37;62.59;98669.54;106054;1251;64135;-57
2023/11/25 05:15:12;;;;;;;3.60;1.10;;;;;;;2.36;62.62;98681.60;107125;1259;61919;-55
2023/11/25 05:17:40;;;;;;;4.90;1.20;;;;;;;2.34;62.62;98700.41;105230;1253;62607;-50
2023/11/25 05:20:10;;;;;;;6.60;1.90;;;;;;;2.31;62.61;98726.39;106025;1254;59762;-56
2023/11/25 05:22:39;;;;;;;5.00;1.50;;;;;;;2.26;62.54;98731.48;105821;1256;62877;-56
2023/11/25 05:25:06;;;;;;;5.70;3.30;;;;;;;2.18;62.33;98730.45;105360;1265;64245;-55
2023/11/25 05:27:34;;;;;;;8.70;3.20;;;;;;;2.11;62.38;98717.54;105168;1258;61894;-54
2023/11/25 05:30:02;;;;;;;6.90;1.90;;;;;;;2.02;62.45;98709.47;105242;1255;63762;-54
2023/11/25 05:32:30;;;;;;;6.70;2.40;;;;;;;1.94;62.39;98704.19;107140;1260;59689;-57
2023/11/25 05:34:58;;;;;;;9.50;2.10;;;;;;;1.84;62.38;98691.55;107516;1257;59739;-57
2023/11/25 05:37:26;;;;;;;6.00;2.10;;;;;;;1.76;62.44;98695.46;104976;1257;64029;-57
2023/11/25 05:39:55;;;;;;;5.70;1.80;;;;;;;1.68;62.57;98696.84;106887;1253;60308;-58
2023/11/25 05:42:27;;;;;;;6.10;2.20;;;;;;;1.61;62.72;98696.77;105141;1259;63724;-57
2023/11/25 05:44:55;;;;;;;7.30;1.80;;;;;;;1.55;62.91;98695.49;106691;1254;59740;-57
2023/11/25 05:47:26;;;;;;;6.00;1.60;;;;;;;1.57;62.97;98698.65;105582;1254;59678;-57
2023/11/25 05:49:53;;;;;;;8.20;1.60;;;;;;;1.64;62.95;98696.90;107669;1259;64106;-55
2023/11/25 05:52:21;;;;;;;5.90;2.20;;;;;;;1.73;63.00;98694.42;109165;1254;60254;-57
2023/11/25 05:54:49;;;;;;;7.10;1.90;;;;;;;1.80;62.98;98701.50;106115;1255;64389;-58
2023/11/25 05:57:16;;;;;;;6.00;1.70;;;;;;;1.89;63.09;98699.38;106188;1254;59752;-60
2023/11/25 05:59:44;;;;;;;4.80;2.00;;;;;;;1.97;63.14;98694.92;105462;1253;59560;-59
2023/11/25 06:02:11;;;;;;;4.30;1.10;;;;;;;2.04;63.26;98697.55;106518;1254;63010;-59
2023/11/25 06:04:39;;;;;;;5.60;2.70;;;;;;;2.08;63.25;98697.81;105782;1259;60093;-61
2023/11/25 06:07:07;;;;;;;5.40;1.90;;;;;;;2.11;63.27;98691.56;109009;1254;63739;-62
2023/11/25 06:09:34;;;;;;;11.30;2.90;;;;;;;2.13;63.16;98687.80;105728;1259;59646;-59
2023/11/25 06:12:09;;;;;;;8.00;3.10;;;;;;;2.14;63.13;98695.33;106503;1256;60285;-54
2023/11/25 06:14:38;;;;;;;8.60;2.70;;;;;;;2.15;63.07;98712.86;106791;1253;64058;-52
2023/11/25 06:17:07;;;;;;;6.90;2.90;;;;;;;2.15;63.05;98716.48;107588;1256;61318;-54
2023/11/25 06:19:36;;;;;;;5.40;2.00;;;;;;;2.14;62.95;98716.23;106015;1257;62466;-55
2023/11/25 06:22:07;;;;;;;10.20;1.90;;;;;;;2.12;63.08;98707.36;105192;1255;63476;-54
2023/11/25 06:24:35;;;;;;;6.10;2.70;;;;;;;2.12;63.05;98704.25;109206;1254;58123;-53
2023/11/25 06:27:03;;;;;;;10.00;2.70;;;;;;;2.14;63.16;98687.52;109151;1255;65797;-53
2023/11/25 06:29:31;;;;;;;8.20;3.50;;;;;;;2.16;63.18;98663.82;109045;1257;62312;-52
2023/11/25 06:32:00;;;;;;;9.20;3.60;;;;;;;2.18;63.10;98665.27;109257;1254;62464;-54
2023/11/25 06:34:30;;;;;;;6.40;1.90;;;;;;;2.20;63.13;98666.86;108799;1254;60322;-56
2023/11/25 06:36:57;;;;;;;8.90;2.00;;;;;;;2.23;63.13;98671.79;109268;1253;58355;-54
2023/11/25 06:39:29;;;;;;;6.80;2.00;;;;;;;2.31;63.10;98677.27;109149;1254;65259;-55
2023/11/25 06:41:58;;;;;;;6.00;2.30;;;;;;;2.43;62.96;98681.96;105899;1254;63831;-52
2023/11/25 06:44:27;;;;;;;7.20;1.50;;;;;;;2.55;62.87;98697.70;105337;1254;63736;-50
2023/11/25 06:46:55;;;;;;;7.60;2.40;;;;;;;2.67;63.03;98699.05;107015;1254;60538;-53
2023/11/25 06:49:23;;;;;;;6.30;1.80;;;;;;;2.80;63.07;98701.77;105203;1258;60476;-52
2023/11/25 06:51:51;;;;;;;8.90;2.70;;;;;;;2.89;62.97;98706.09;105053;1260;63905;-53
2023/11/25 06:54:18;;;;;;;6.10;2.80;;;;;;;2.94;63.07;98710.86;106989;1254;62987;-53
2023/11/25 06:56:47;;;;;;;6.50;2.80;;;;;;;3.00;63.19;98719.95;109153;1253;62480;-52
2023/11/25 06:59:15;;;;;;;7.10;2.80;;;;;;;3.06;63.05;98723.72;105329;1254;60582;-50
2023/11/25 07:01:42;;;;;;;5.50;2.40;;;;;;;3.09;62.81;98729.71;107781;1253;59337;-54
2023/11/25 07:04:13;;;;;;;7.30;2.90;;;;;;;3.10;62.75;98737.60;105806;1255;63701;-55
2023/11/25 07:06:41;;;;;;;9.30;4.20;;;;;;;3.11;62.69;98735.58;105489;1254;60489;-54
2023/11/25 07:09:09;;;;;;;6.90;2.10;;;;;;;3.11;62.63;98733.69;105806;1254;65740;-54
2023/11/25 07:11:37;;;;;;;7.50;2.00;;;;;;;3.12;62.72;98739.67;105850;1257;60507;-54
2023/11/25 07:14:05;;;;;;;6.50;2.90;;;;;;;3.12;62.57;98743.17;105612;1254;60472;-55
2023/11/25 07:16:33;;;;;;;7.60;2.30;;;;;;;3.11;62.48;98747.86;105134;1254;63809;-49
2023/11/25 07:19:05;;;;;;;7.70;2.70;;;;;;;3.18;62.32;98752.27;105715;1257;60857;-51
2023/11/25 07:21:36;;;;;;;8.70;2.50;;;;;;;3.27;62.08;98759.52;105061;1257;75217;-51
2023/11/25 07:24:05;;;;;;;7.20;1.60;;;;;;;3.35;62.04;98761.34;105260;1256;60603;-54
2023/11/25 07:26:42;;;;;;;5.40;2.00;;;;;;;3.43;61.98;98760.73;105951;1254;60539;-51
2023/11/25 07:29:12;;;;;;;8.30;3.40;;;;;;;3.48;61.91;98766.93;105056;1254;63619;-51
2023/11/25 07:31:39;;;;;;;10.90;3.60;;;;;;;3.51;61.79;98771.42;105410;1254;61803;-60
2023/11/25 07:34:08;;;;;;;6.50;2.80;;;;;;;3.51;61.70;98776.95;105143;1257;63890;-59
2023/11/25 07:36:41;;;;;;;8.60;4.00;;;;;;;3.50;61.47;98779.59;106302;1260;60565;-64
2023/11/25 07:39:08;;;;;;;8.50;2.30;;;;;;;3.46;61.30;98785.09;104865;1254;60562;-60
2023/11/25 07:41:36;;;;;;;7.60;3.10;;;;;;;3.42;61.19;98794.45;108520;1254;63713;-60
2023/11/25 07:44:04;;;;;;;9.00;4.70;;;;;;;3.39;61.27;98798.65;105544;1254;61352;-61
2023/11/25 07:46:32;;;;;;;4.70;1.60;;;;;;;3.38;61.21;98807.89;105142;1254;63730;-61
2023/11/25 07:49:02;;;;;;;5.90;2.50;;;;;;;3.46;61.07;98815.27;107325;1257;60547;-53
2023/11/25 07:51:32;;;;;;;4.80;1.60;;;;;;;3.54;60.80;98824.23;109202;1254;58451;-55
2023/11/25 07:54:00;;;;;;;9.60;2.60;;;;;;;3.61;60.77;98830.12;109145;1254;63980;-48
2023/11/25 07:56:27;;;;;;;5.10;1.90;;;;;;;3.67;60.80;98825.36;109179;1253;61373;-53
2023/11/25 07:58:55;;;;;;;8.30;3.00;;;;;;;3.71;60.75;98824.86;109071;1254;63757;-52
2023/11/25 08:01:26;;;;;;;6.80;2.40;;;;;;;3.76;60.58;98826.59;109056;1253;59224;-50
2023/11/25 08:03:53;;;;;;;5.50;2.60;;;;;;;3.78;60.35;98828.83;106792;1257;59511;-50
2023/11/25 08:06:25;;;;;;;7.60;3.00;;;;;;;3.79;60.16;98833.23;106591;1254;64935;-53
2023/11/25 08:09:03;;;;;;;6.00;2.10;;;;;;;3.79;60.01;98835.50;105607;1254;61609;-56
2023/11/25 08:11:35;;;;;;;7.20;2.90;;;;;;;3.78;59.99;98827.58;109007;1254;66153;-54
2023/11/25 08:14:02;;;;;;;4.30;2.10;;;;;;;3.80;59.89;98823.97;109166;1254;60880;-54
2023/11/25 08:16:30;;;;;;;4.70;1.70;;;;;;;3.91;59.62;98820.58;109044;1253;58489;-54
2023/11/25 08:18:58;;;;;;;10.50;2.00;;;;;;;4.04;59.30;98811.91;107078;1251;65011;-53
2023/11/25 08:21:27;;;;;;;5.80;2.30;;;;;;;4.14;58.99;98807.98;106000;1254;61369;-58
2023/11/25 08:23:55;;;;;;;6.80;2.10;;;;;;;4.20;58.96;98806.61;105231;1257;62502;-56
2023/11/25 08:26:25;;;;;;;7.90;2.40;;;;;;;4.25;58.57;98806.09;105680;1257;60486;-55
2023/11/25 08:28:53;;;;;;;6.60;2.80;;;;;;;4.25;58.35;98806.06;105960;1256;60356;-56
2023/11/25 08:31:22;;;;;;;6.90;2.70;;;;;;;4.26;58.43;98798.23;105130;1254;64971;-55
2023/11/25 08:33:50;;;;;;;6.90;2.30;;;;;;;4.30;58.29;98799.66;105611;1257;60558;-56
2023/11/25 08:36:22;;;;;;;7.80;3.70;;;;;;;4.31;58.03;98796.47;106111;1254;62502;-56
2023/11/25 08:38:51;;;;;;;6.20;2.60;;;;;;;4.32;57.92;98803.00;105201;1260;60735;-60
2023/11/25 08:41:19;;;;;;;7.40;2.40;;;;;;;4.32;57.70;98808.34;105166;1256;60454;-63
2023/11/25 08:43:47;;;;;;;10.50;2.80;;;;;;;4.30;57.58;98811.25;105245;1252;64155;-65
2023/11/25 08:46:19;;;;;;;5.10;1.40;;;;;;;4.32;57.41;98806.56;105381;1254;62219;-64
2023/11/25 08:48:48;;;;;;;4.90;2.10;;;;;;;4.41;57.13;98801.67;105080;1255;63968;-64
2023/11/25 08:51:20;;;;;;;4.90;1.20;;;;;;;4.52;56.91;98792.66;105932;1254;60562;-63
2023/11/25 08:53:50;;;;;;;4.40;1.50;;;;;;;4.64;56.77;98793.81;105678;1256;60550;-62
2023/11/25 08:56:19;;;;;;;6.90;2.50;;;;;;;4.72;56.41;98788.33;107073;1253;65011;-65
2023/11/25 08:58:48;;;;;;;10.20;2.70;;;;;;;4.76;56.27;98783.33;106141;1254;62048;-65
2023/11/25 09:01:26;;;;;;;6.00;2.10;;;;;;;4.78;55.96;98781.35;105294;1254;64315;-55
2023/11/25 09:03:56;;;;;;;6.40;2.60;;;;;;;4.78;55.64;98781.71;109101;1253;58653;-54
2023/11/25 09:06:24;;;;;;;7.90;2.10;;;;;;;4.76;55.44;98782.09;106873;1253;59640;-55
2023/11/25 09:08:53;;;;;;;6.80;2.20;;;;;;;4.73;55.40;98781.23;106489;1254;66135;-57
2023/11/25 09:11:25;;;;;;;9.20;1.90;;;;;;;4.75;55.46;98771.50;105263;1251;61361;-50
2023/11/25 09:13:55;;;;;;;6.50;2.50;;;;;;;4.80;55.41;98764.05;105402;1254;63825;-56
2023/11/25 09:16:25;;;;;;;6.90;2.60;;;;;;;4.83;55.42;98756.14;105955;1257;60479;-55
2023/11/25 09:18:53;;;;;;;7.30;1.80;;;;;;;4.87;55.35;98759.77;106087;1254;60480;-55
2023/11/25 09:21:24;;;;;;;6.10;1.70;;;;;;;4.89;54.94;98769.91;104977;1257;65079;-55
2023/11/25 09:23:51;;;;;;;5.80;1.80;;;;;;;4.88;54.42;98784.43;105195;1257;60904;-58
2023/11/25 09:26:21;;;;;;;6.90;2.90;;;;;;;4.83;54.08;98788.59;106795;1251;62411;-56
2023/11/25 09:28:49;;;;;;;6.90;1.80;;;;;;;4.81;54.39;98795.41;106540;1254;60431;-57
2023/11/25 09:31:17;;;;;;;4.80;1.80;;;;;;;4.83;54.64;98792.80;105145;1253;60349;-56
2023/11/25 09:33:45;;;;;;;9.40;2.60;;;;;;;4.87;54.27;98791.42;106272;1257;65528;-56
2023/11/25 09:36:13;;;;;;;6.50;1.90;;;;;;;4.86;54.21;98791.11;105658;1254;61396;-53
2023/11/25 09:38:40;;;;;;;5.30;1.40;;;;;;;4.85;54.20;98792.59;105210;1254;62432;-59
2023/11/25 09:41:08;;;;;;;8.20;2.20;;;;;;;4.90;54.34;98795.66;104836;1254;60536;-59
2023/11/25 09:43:36;;;;;;;5.90;1.70;;;;;;;4.97;54.30;98798.58;104912;1254;60422;-64
2023/11/25 09:46:04;;;;;;;3.30;1.00;;;;;;;5.05;54.12;98803.70;104980;1257;67315;-60
2023/11/25 09:48:33;;;;;;;5.30;1.50;;;;;;;5.16;53.75;98813.92;106793;1254;60546;-58
2023/11/25 09:51:01;;;;;;;6.40;1.70;;;;;;;5.31;53.57;98818.36;106487;1254;62525;-59
2023/11/25 09:53:31;;;;;;;4.80;1.20;;;;;;;5.48;53.55;98827.91;105822;1253;62859;-59
2023/11/25 09:56:06;;;;;;;6.60;1.90;;;;;;;5.65;53.15;98832.98;105166;1254;60917;-58
2023/11/25 09:58:35;;;;;;;8.00;1.90;;;;;;;5.75;52.79;98835.76;105964;1255;64969;-58
2023/11/25 10:01:07;;;;;;;4.70;1.80;;;;;;;5.82;52.59;98829.94;105205;1254;61468;-60
2023/11/25 10:03:45;;;;;;;4.00;1.30;;;;;;;5.91;52.43;98821.17;108996;1253;62428;-60
2023/11/25 10:06:14;;;;;;;6.60;1.50;;;;;;;5.97;52.09;98817.38;105116;1254;60545;-59
2023/11/25 10:08:41;;;;;;;7.50;3.00;;;;;;;5.98;51.68;98813.13;105016;1254;60335;-59
2023/11/25 10:11:09;;;;;;;9.90;4.90;;;;;;;5.95;51.75;98809.88;104881;1253;65406;-60
2023/11/25 10:13:44;;;;;;;5.60;2.10;;;;;;;5.98;51.87;98813.98;105723;1257;69035;-59
2023/11/25 10:16:13;;;;;;;5.90;1.50;;;;;;;6.00;51.86;98809.32;105861;1254;65824;-62
2023/11/25 10:18:44;;;;;;;6.40;2.50;;;;;;;6.00;51.92;98804.83;105183;1254;60543;-61
2023/11/25 10:21:13;;;;;;;7.00;2.80;;;;;;;6.03;52.14;98806.46;106699;1254;60355;-59
2023/11/25 10:23:40;;;;;;;6.10;2.10;;;;;;;6.09;52.03;98805.02;105061;1254;64932;-61
2023/11/25 10:26:08;;;;;;;6.10;2.30;;;;;;;6.13;51.50;98805.38;105434;1253;61295;-62
2023/11/25 10:28:36;;;;;;;6.50;2.90;;;;;;;6.12;51.45;98801.79;105157;1254;63832;-61
2023/11/25 10:31:05;;;;;;;7.40;2.70;;;;;;;6.13;51.55;98804.02;105032;1257;60549;-59
2023/11/25 10:33:34;;;;;;;7.80;4.50;;;;;;;6.14;51.65;98804.96;107661;1252;59332;-61
2023/11/25 10:36:03;;;;;;;8.30;3.00;;;;;;;6.17;51.64;98802.47;106561;1254;63698;-60
2023/11/25 10:38:31;;;;;;;6.30;2.60;;;;;;;6.20;51.55;98804.12;105970;1253;61614;-59
2023/11/25 10:41:05;;;;;;;6.80;1.50;;;;;;;6.19;51.34;98805.94;106660;1251;62511;-59
2023/11/25 10:43:34;;;;;;;10.10;5.20;;;;;;;6.17;50.93;98809.26;107419;1254;60365;-59
2023/11/25 10:46:07;;;;;;;6.90;2.90;;;;;;;6.13;51.00;98812.13;105865;1253;60515;-61
2023/11/25 10:48:38;;;;;;;6.00;2.60;;;;;;;6.14;51.22;98821.81;107282;1258;66011;-60
2023/11/25 10:51:08;;;;;;;6.30;2.10;;;;;;;6.16;51.26;98816.46;107010;1257;60537;-60
2023/11/25 10:53:37;;;;;;;6.70;2.40;;;;;;;6.17;51.57;98818.50;105695;1253;63774;-60
2023/11/25 10:56:05;;;;;;;10.30;5.90;;;;;;;6.21;51.81;98813.23;107817;1253;60440;-61
2023/11/25 10:58:34;;;;;;;8.50;3.30;;;;;;;6.29;51.88;98812.89;106458;1256;60454;-59
2023/11/25 11:01:02;;;;;;;7.10;3.60;;;;;;;6.39;51.84;98813.43;107547;1253;72324;-59
2023/11/25 11:03:48;;;;;;;8.10;2.60;;;;;;;6.45;51.55;98814.95;105749;1253;61840;-62
2023/11/25 11:06:19;;;;;;;;;;;;;;;6.49;51.33;98821.52;105896;1253;63739;-59
2023/11/25 11:08:47;;;;;;;11.70;1.90;;;;;;;6.48;51.01;98817.12;105814;1254;60546;-60
2023/11/25 11:11:21;;;;;;;6.60;1.80;;;;;;;6.44;50.94;98813.19;105203;1258;60543;-58
2023/11/25 11:14:14;;;;;;;6.60;1.90;;;;;;;6.40;51.11;98809.67;105174;1253;65210;-58
2023/11/25 11:16:57;;;;;;;5.10;1.60;;;;;;;6.38;51.21;98815.59;105213;1254;60516;-59
2023/11/25 11:19:28;;;;;;;10.30;5.60;;;;;;;6.36;51.20;98819.23;106389;1253;62590;-59
2023/11/25 11:22:01;;;;;;;4.90;1.60;;;;;;;6.35;51.29;98818.63;106091;1253;60540;-59
2023/11/25 11:24:54;;;;;;;7.80;3.00;;;;;;;6.35;51.44;98826.01;105175;1257;60538;-60
2023/11/25 11:27:34;;;;;;;6.50;2.00;;;;;;;6.35;51.35;98836.62;105580;1253;64909;-61
2023/11/25 11:30:15;;;;;;;9.50;3.60;;;;;;;6.32;51.38;98841.69;105631;1255;60441;-60
2023/11/25 11:32:43;;;;;;;9.30;2.90;;;;;;;6.30;51.49;98838.08;105507;1257;62516;-59
2023/11/25 11:35:12;;;;;;;13.20;6.00;;;;;;;6.27;51.54;98848.73;106256;1254;60368;-61
2023/11/25 11:37:48;;;;;;;6.00;2.10;;;;;;;6.24;51.60;98856.04;105308;1257;60476;-60
2023/11/25 11:40:22;;;;;;;8.80;4.20;;;;;;;6.22;52.11;98856.72;105215;1253;63687;-58
2023/11/25 11:42:50;;;;;;;7.50;3.10;;;;;;;6.23;52.57;98854.98;105818;1253;61390;-56
2023/11/25 11:45:20;;;;;;;8.40;3.30;;;;;;;6.23;52.76;98852.41;106496;1253;71396;-62
2023/11/25 11:47:53;;;;;;;14.50;8.50;;;;;;;6.22;53.02;98850.92;108833;1254;59713;-58